Bmc Master — V7ZF7 — position and weather

sailwx.info

Track history (hours):
 
Tides and Currents Weather Stations Pressure Air Temp Water Temp Dewpoint Dewpoint Depression Visibility Wind Speed Wind Dir Waves Ship Positions

Bmc Master

Last reported at 2017-Sep-26 00:38 UTC. Time now 2017-Sep-26 18:31 UTC.
Position N 57°49' E 010°22'.

Length 116 m; draft 6.6 m.

Type: Cargo ship. MMSI: 538004813.

Date/timePositionNaut miles runAvg speedWind from/ knotsBaromVisibWave heightAir tempDewpointWater temp
2017-Sep-26 00:38N 57°49' E 010°22'212.8
2017-Sep-26 00:30N 57°49' E 010°25'713.2
2017-Sep-26 00:00N 57°49' E 010°37'611.2
2017-Sep-25 23:30N 57°47' E 010°47'510.6
2017-Sep-25 23:00N 57°43' E 010°55'611.1
2017-Sep-25 22:30N 57°40' E 011°02'611.3
2017-Sep-25 22:00N 57°36' E 011°10'611.7
2017-Sep-25 21:30N 57°32' E 011°18'611.5
2017-Sep-25 21:00N 57°28' E 011°25'611.5
2017-Sep-25 20:30N 57°22' E 011°29'611.5
2017-Sep-25 20:00N 57°17' E 011°33'611.5
2017-Sep-25 19:30N 57°12' E 011°36'611.2
2017-Sep-25 18:59N 57°06' E 011°40'611.1
2017-Sep-25 18:25N 57°00' E 011°44'10110.2
2017-Sep-25 08:28N 55°21' E 011°02'711.4
2017-Sep-25 07:53N 55°15' E 011°05'4 9.4
2017-Sep-25 07:30N 55°11' E 011°04'510.6
2017-Sep-25 07:00N 55°07' E 010°59'611.7
2017-Sep-25 06:30N 55°01' E 010°59'611.0
2017-Sep-25 06:00N 54°57' E 010°54'612.1
2017-Sep-25 05:30N 54°51' E 010°50'611.9
2017-Sep-25 05:00N 54°45' E 010°48'510.3
2017-Sep-25 04:30N 54°40' E 010°49'612.3
2017-Sep-25 04:00N 54°37' E 010°58'612.1
2017-Sep-25 03:30N 54°36' E 011°09'612.4
2017-Sep-25 03:00N 54°34' E 011°18'612.5
2017-Sep-25 02:30N 54°31' E 011°28'612.0
2017-Sep-25 02:00N 54°29' E 011°38'611.9
2017-Sep-25 01:30N 54°27' E 011°47'612.0
2017-Sep-25 01:00N 54°26' E 011°58'612.1
2017-Sep-25 00:30N 54°26' E 012°08'510.7
2017-Sep-25 00:00N 54°31' E 012°13'510.1
2017-Sep-24 23:30N 54°36' E 012°16'4 8.5
2017-Sep-24 23:00N 54°38' E 012°22'510.5
2017-Sep-24 22:30N 54°41' E 012°29'510.5
2017-Sep-24 22:00N 54°44' E 012°37'510.4
2017-Sep-24 21:29N 54°47' E 012°45'1411.2
2017-Sep-24 20:14N 54°52' E 013°07'412.5
2017-Sep-24 19:54N 54°53' E 013°14'1812.4
2017-Sep-24 18:28N 54°59' E 013°43'912.3
2017-Sep-24 17:43N 55°03' E 013°58'311.9
2017-Sep-24 17:27N 55°04' E 014°03'512.3
2017-Sep-24 17:00N 55°08' E 014°09'612.5
2017-Sep-24 16:30N 55°13' E 014°17'612.5
2017-Sep-24 16:00N 55°18' E 014°24'612.3
2017-Sep-24 15:30N 55°22' E 014°31'612.2
2017-Sep-24 15:00N 55°27' E 014°38'612.4
2017-Sep-24 14:30N 55°30' E 014°48'612.4
2017-Sep-24 14:00N 55°33' E 014°57'612.5
2017-Sep-24 13:30N 55°36' E 015°07'612.5
2017-Sep-24 13:00N 55°39' E 015°17'612.4
2017-Sep-24 12:30N 55°40' E 015°27'612.5
2017-Sep-24 12:00N 55°42' E 015°38'612.6
2017-Sep-24 11:30N 55°43' E 015°49'612.4
2017-Sep-24 11:00N 55°44' E 015°60'612.5
2017-Sep-24 10:30N 55°46' E 016°11'612.4
2017-Sep-24 10:00N 55°47' E 016°21'612.2
2017-Sep-24 09:30N 55°49' E 016°32'612.2
2017-Sep-24 09:00N 55°50' E 016°42'612.4
2017-Sep-24 08:30N 55°52' E 016°53'612.3
2017-Sep-24 08:00N 55°53' E 017°04'612.4
2017-Sep-24 07:30N 55°55' E 017°15'612.4
2017-Sep-24 07:00N 55°56' E 017°25'612.5
2017-Sep-24 06:30N 55°58' E 017°36'712.5
2017-Sep-24 05:56N 56°01' E 017°48'612.6
2017-Sep-24 05:29N 56°04' E 017°57'1512.3
2017-Sep-24 04:16N 56°11' E 018°19'512.4
2017-Sep-24 03:51N 56°14' E 018°27'412.4
2017-Sep-24 03:30N 56°16' E 018°34'  
Track history (hours):
 
Tides and Currents Weather Stations Pressure Air Temp Water Temp Dewpoint Dewpoint Depression Visibility Wind Speed Wind Dir Waves Ship Positions

Bmc Master

Last reported at 2017-Sep-26 00:38 UTC. Time now 2017-Sep-26 18:31 UTC.
Position N 57°49' E 010°22'.

Length 116 m; draft 6.6 m.

Type: Cargo ship. MMSI: 538004813.

Date/timePositionNaut miles runAvg speedWind from/ knotsBaromVisibWave heightAir tempDewpointWater temp
2017-Sep-26 00:38N 57°49' E 010°22'212.8
2017-Sep-26 00:30N 57°49' E 010°25'713.2
2017-Sep-26 00:00N 57°49' E 010°37'611.2
2017-Sep-25 23:30N 57°47' E 010°47'510.6
2017-Sep-25 23:00N 57°43' E 010°55'611.1
2017-Sep-25 22:30N 57°40' E 011°02'611.3
2017-Sep-25 22:00N 57°36' E 011°10'611.7
2017-Sep-25 21:30N 57°32' E 011°18'611.5
2017-Sep-25 21:00N 57°28' E 011°25'611.5
2017-Sep-25 20:30N 57°22' E 011°29'611.5
2017-Sep-25 20:00N 57°17' E 011°33'611.5
2017-Sep-25 19:30N 57°12' E 011°36'611.2
2017-Sep-25 18:59N 57°06' E 011°40'611.1
2017-Sep-25 18:25N 57°00' E 011°44'10110.2
2017-Sep-25 08:28N 55°21' E 011°02'711.4
2017-Sep-25 07:53N 55°15' E 011°05'4 9.4
2017-Sep-25 07:30N 55°11' E 011°04'510.6
2017-Sep-25 07:00N 55°07' E 010°59'611.7
2017-Sep-25 06:30N 55°01' E 010°59'611.0
2017-Sep-25 06:00N 54°57' E 010°54'612.1
2017-Sep-25 05:30N 54°51' E 010°50'611.9
2017-Sep-25 05:00N 54°45' E 010°48'510.3
2017-Sep-25 04:30N 54°40' E 010°49'612.3
2017-Sep-25 04:00N 54°37' E 010°58'612.1
2017-Sep-25 03:30N 54°36' E 011°09'612.4
2017-Sep-25 03:00N 54°34' E 011°18'612.5
2017-Sep-25 02:30N 54°31' E 011°28'612.0
2017-Sep-25 02:00N 54°29' E 011°38'611.9
2017-Sep-25 01:30N 54°27' E 011°47'612.0
2017-Sep-25 01:00N 54°26' E 011°58'612.1
2017-Sep-25 00:30N 54°26' E 012°08'510.7
2017-Sep-25 00:00N 54°31' E 012°13'510.1
2017-Sep-24 23:30N 54°36' E 012°16'4 8.5
2017-Sep-24 23:00N 54°38' E 012°22'510.5
2017-Sep-24 22:30N 54°41' E 012°29'510.5
2017-Sep-24 22:00N 54°44' E 012°37'510.4
2017-Sep-24 21:29N 54°47' E 012°45'1411.2
2017-Sep-24 20:14N 54°52' E 013°07'412.5
2017-Sep-24 19:54N 54°53' E 013°14'1812.4
2017-Sep-24 18:28N 54°59' E 013°43'912.3
2017-Sep-24 17:43N 55°03' E 013°58'311.9
2017-Sep-24 17:27N 55°04' E 014°03'512.3
2017-Sep-24 17:00N 55°08' E 014°09'612.5
2017-Sep-24 16:30N 55°13' E 014°17'612.5
2017-Sep-24 16:00N 55°18' E 014°24'612.3
2017-Sep-24 15:30N 55°22' E 014°31'612.2
2017-Sep-24 15:00N 55°27' E 014°38'612.4
2017-Sep-24 14:30N 55°30' E 014°48'612.4
2017-Sep-24 14:00N 55°33' E 014°57'612.5
2017-Sep-24 13:30N 55°36' E 015°07'612.5
2017-Sep-24 13:00N 55°39' E 015°17'612.4
2017-Sep-24 12:30N 55°40' E 015°27'612.5
2017-Sep-24 12:00N 55°42' E 015°38'612.6
2017-Sep-24 11:30N 55°43' E 015°49'612.4
2017-Sep-24 11:00N 55°44' E 015°60'612.5
2017-Sep-24 10:30N 55°46' E 016°11'612.4
2017-Sep-24 10:00N 55°47' E 016°21'612.2
2017-Sep-24 09:30N 55°49' E 016°32'612.2
2017-Sep-24 09:00N 55°50' E 016°42'612.4
2017-Sep-24 08:30N 55°52' E 016°53'612.3
2017-Sep-24 08:00N 55°53' E 017°04'612.4
2017-Sep-24 07:30N 55°55' E 017°15'612.4
2017-Sep-24 07:00N 55°56' E 017°25'612.5
2017-Sep-24 06:30N 55°58' E 017°36'712.5
2017-Sep-24 05:56N 56°01' E 017°48'612.6
2017-Sep-24 05:29N 56°04' E 017°57'1512.3
2017-Sep-24 04:16N 56°11' E 018°19'512.4
2017-Sep-24 03:51N 56°14' E 018°27'412.4
2017-Sep-24 03:30N 56°16' E 018°34'  

Dump ship's entire track history